Terminal Aerodrome Forecast
Issued by NWS

Home | Current Version | Previous Version | Text Only | Print | Product List | Glossary On
Versions: 1 2 3 4 5 6 7 8 9 10 11 12 13 14 15 16 17 18 19 20 21 22 23 24 25 26 27 28
000
FTAK31 PAFA 231138
TAFAGA
TAF
PAGA 231138Z 2312/2412 36010KT 6SM -RA BR BKN015 BKN025 OVC035
     FM231800 33006KT P6SM VCSH BKN025 OVC035
     FM232100 30004KT P6SM SCT025 BKN035 OVC050
     FM240000 30004KT P6SM SCT035 BKN050=

USA.gov is the U.S. government's official web portal to all federal, state and local government web resources and services.